Terminal Aerodrome Forecast
Issued by NWS

Home | Current Version | Previous Version | Text Only | Print | Product List | Glossary On
Versions: 1 2 3 4 5 6 7 8 9 10 11 12 13 14 15 16 17 18 19 20 21
000
FTUS41 KPHI 221200 AAA
TAFMIV
TAF AMD
KMIV 221210Z 2212/2312 06006KT P6SM OVC007
      TEMPO 2213/2217 FEW007 BKN012
     FM221700 10008KT P6SM VCSH BKN040
     FM230300 07006KT P6SM OVC015
     FM230700 06006KT 5SM BR OVC007=

USA.gov is the U.S. government's official web portal to all federal, state and local government web resources and services.